Time;durP1;ratioP1;P1;durP2;ratioP2;P2;SDS_P1;SDS_P2;PMS_P1;PMS_P2;Temp;Humidity;BMP_temperature;BMP_pressure;BME280_temperature;BME280_humidity;BME280_pressure;Samples;Min_cycle;Max_cycle;Signal;HPM_P1;HPM_P2
2023/05/22 00:00:53;;;;;;;;;;;;;;;;;;5070680;28;19932;-76
2023/05/22 00:03:23;;;;;;;;;;;;;;;;;;5066955;28;19936;-78
2023/05/22 00:05:49;;;;;;;;;;;16.90;99.90;;;;;;5069726;28;19928;-79
2023/05/22 00:08:16;;;;;;;;;;;16.90;99.90;;;;;;5065730;28;21044;-78
2023/05/22 00:10:43;;;;;;;;;;;;;;;;;;5053779;28;19932;-77
2023/05/22 00:13:10;;;;;;;;;;;;;;;;;;5063836;28;19978;-77
2023/05/22 00:15:38;;;;;;;;;;;17.00;99.90;;;;;;5064964;28;20405;-77
2023/05/22 00:18:06;;;;;;;;;;;;;;;;;;5063392;28;19933;-78
2023/05/22 00:20:37;;;;;;;;;;;;;;;;;;5067271;28;20363;-76
2023/05/22 00:23:03;;;;;;;;;;;17.00;99.90;;;;;;5066964;28;20277;-76
2023/05/22 00:25:30;;;;;;;;;;;17.00;99.90;;;;;;5069180;28;20375;-76
2023/05/22 00:27:57;;;;;;;;;;;;;;;;;;5067639;28;19939;-76
2023/05/22 00:30:25;;;;;;;;;;;17.00;99.90;;;;;;5044887;28;19972;-76
2023/05/22 00:32:52;;;;;;;;;;;;;;;;;;5044543;28;19928;-76
2023/05/22 00:35:20;;;;;;;;;;;;;;;;;;5041898;28;19928;-76
2023/05/22 00:37:47;;;;;;;;;;;;;;;;;;5042903;28;19936;-78
2023/05/22 00:40:15;;;;;;;;;;;17.00;99.90;;;;;;5058956;28;19931;-76
2023/05/22 00:42:42;;;;;;;;;;;17.00;99.90;;;;;;5039818;28;19939;-78
2023/05/22 00:45:10;;;;;;;;;;;17.00;99.90;;;;;;5040696;28;20513;-77
2023/05/22 00:47:37;;;;;;;;;;;;;;;;;;5050040;28;20019;-77
2023/05/22 00:50:04;;;;;;;;;;;16.90;99.90;;;;;;5059089;28;21397;-78
2023/05/22 00:55:13;;;;;;;;;;;16.90;99.90;;;;;;5113100;22;20008;-77
2023/05/22 00:57:42;;;;;;;;;;;16.80;99.90;;;;;;5100217;27;19993;-77
2023/05/22 01:00:10;;;;;;;;;;;16.80;99.90;;;;;;5110426;28;19932;-77
2023/05/22 01:02:37;;;;;;;;;;;16.70;99.90;;;;;;5113688;28;19934;-77
2023/05/22 01:05:04;;;;;;;;;;;16.70;99.90;;;;;;5102197;28;19954;-78
2023/05/22 01:07:32;;;;;;;;;;;16.70;99.90;;;;;;5081141;22;20050;-81
2023/05/22 01:09:59;;;;;;;;;;;16.60;99.90;;;;;;5079843;28;19982;-80
2023/05/22 01:12:26;;;;;;;;;;;;;;;;;;5064717;28;19932;-80
2023/05/22 01:14:59;;;;;;;;;;;16.60;99.90;;;;;;5064725;28;20479;-79
2023/05/22 01:17:33;;;;;;;;;;;16.60;99.90;;;;;;5062517;28;19935;-81
2023/05/22 01:20:05;;;;;;;;;;;;;;;;;;5066294;28;21023;-81
2023/05/22 01:22:32;;;;;;;;;;;;;;;;;;5064537;28;20050;-80
2023/05/22 01:24:59;;;;;;;;;;;;;;;;;;5060941;28;19932;-80
2023/05/22 01:27:27;;;;;;;;;;;;;;;;;;5062687;28;20569;-80
2023/05/22 01:30:04;;;;;;;;;;;16.50;99.90;;;;;;5065095;28;20481;-80
2023/05/22 01:32:31;;;;;;;;;;;;;;;;;;5062441;28;19961;-81
2023/05/22 01:34:58;;;;;;;;;;;;;;;;;;5058951;28;19932;-79
2023/05/22 01:37:25;;;;;;;;;;;;;;;;;;5072125;28;20077;-78
2023/05/22 01:39:52;;;;;;;;;;;;;;;;;;5061413;28;19936;-78
2023/05/22 01:42:21;;;;;;;;;;;16.50;99.90;;;;;;5058235;28;20292;-78
2023/05/22 01:44:48;;;;;;;;;;;16.50;99.90;;;;;;5057875;28;20281;-78
2023/05/22 01:47:16;;;;;;;;;;;;;;;;;;5059392;28;20422;-79
2023/05/22 01:49:44;;;;;;;;;;;16.50;99.90;;;;;;5064650;28;19932;-80
2023/05/22 01:52:12;;;;;;;;;;;;;;;;;;5058268;28;19932;-79
2023/05/22 01:54:41;;;;;;;;;;;16.50;99.90;;;;;;5075444;28;19933;-80
2023/05/22 01:57:08;;;;;;;;;;;;;;;;;;5063045;28;19924;-79
2023/05/22 01:59:36;;;;;;;;;;;;;;;;;;5061281;28;19932;-78
2023/05/22 02:02:05;;;;;;;;;;;16.50;99.90;;;;;;5062991;28;20010;-79
2023/05/22 02:04:35;;;;;;;;;;;16.50;99.90;;;;;;5062089;28;19935;-81
2023/05/22 02:07:02;;;;;;;;;;;;;;;;;;5064450;28;20404;-80
2023/05/22 02:09:30;;;;;;;;;;;16.40;99.90;;;;;;5060743;28;19932;-78
2023/05/22 02:11:58;;;;;;;;;;;;;;;;;;5059256;28;19928;-78
2023/05/22 02:14:25;;;;;;;;;;;16.40;99.90;;;;;;5057451;28;20751;-77
2023/05/22 02:16:52;;;;;;;;;;;;;;;;;;5081175;28;19974;-78
2023/05/22 02:19:20;;;;;;;;;;;16.20;99.90;;;;;;5071440;28;19943;-78
2023/05/22 02:21:47;;;;;;;;;;;16.20;99.90;;;;;;5063213;28;19936;-78
2023/05/22 02:24:15;;;;;;;;;;;;;;;;;;5070032;28;19925;-78
2023/05/22 02:26:42;;;;;;;;;;;16.10;99.90;;;;;;5067223;28;19936;-78
2023/05/22 02:29:09;;;;;;;;;;;16.10;99.90;;;;;;5067970;28;20384;-78
2023/05/22 02:31:36;;;;;;;;;;;16.10;99.90;;;;;;5063454;28;19938;-77
2023/05/22 02:34:04;;;;;;;;;;;16.00;99.90;;;;;;5068051;28;19943;-77
2023/05/22 02:36:32;;;;;;;;;;;;;;;;;;5072512;28;20346;-78
2023/05/22 02:38:59;;;;;;;;;;;;;;;;;;5070689;28;19928;-79
2023/05/22 02:41:27;;;;;;;;;;;;;;;;;;5071443;28;19936;-80
2023/05/22 02:43:55;;;;;;;;;;;16.00;99.90;;;;;;5071071;28;19928;-78
2023/05/22 02:46:22;;;;;;;;;;;16.00;99.90;;;;;;5072799;28;19929;-80
2023/05/22 02:48:49;;;;;;;;;;;16.00;99.90;;;;;;5077205;28;19928;-80
2023/05/22 02:51:18;;;;;;;;;;;;;;;;;;5077219;28;19935;-80
2023/05/22 02:53:45;;;;;;;;;;;;;;;;;;5076115;28;19971;-80
2023/05/22 02:56:13;;;;;;;;;;;;;;;;;;5072594;28;19925;-79
2023/05/22 02:58:40;;;;;;;;;;;;;;;;;;5071432;28;20369;-78
2023/05/22 03:01:09;;;;;;;;;;;15.80;99.90;;;;;;5071769;28;19939;-78
2023/05/22 03:03:36;;;;;;;;;;;15.80;99.90;;;;;;5072128;28;19933;-78
2023/05/22 03:06:03;;;;;;;;;;;;;;;;;;5072095;28;19924;-78
2023/05/22 03:08:31;;;;;;;;;;;;;;;;;;5073321;28;19928;-78
2023/05/22 03:10:59;;;;;;;;;;;15.70;99.90;;;;;;5074551;28;19971;-79
2023/05/22 03:13:26;;;;;;;;;;;;;;;;;;5083324;28;20256;-80
2023/05/22 03:15:54;;;;;;;;;;;;;;;;;;5064345;28;19931;-81
2023/05/22 03:18:22;;;;;;;;;;;;;;;;;;5072970;28;19924;-80
2023/05/22 03:20:49;;;;;;;;;;;;;;;;;;5068638;28;20391;-79
2023/05/22 03:23:16;;;;;;;;;;;;;;;;;;5069550;28;19963;-79
2023/05/22 03:25:44;;;;;;;;;;;;;;;;;;5069383;28;20320;-80
2023/05/22 03:28:13;;;;;;;;;;;15.50;99.90;;;;;;5071800;28;19985;-79
2023/05/22 03:30:41;;;;;;;;;;;12.10;99.90;;;;;;5069834;28;19983;-81
2023/05/22 03:33:17;;;;;;;;;;;;;;;;;;5073493;28;19928;-83
2023/05/22 03:35:45;;;;;;;;;;;;;;;;;;5078417;28;19928;-82
2023/05/22 03:38:12;;;;;;;;;;;15.40;99.90;;;;;;5076952;28;19947;-83
2023/05/22 03:40:40;;;;;;;;;;;;;;;;;;5076570;28;20011;-84
2023/05/22 03:43:08;;;;;;;;;;;;;;;;;;5073072;28;19927;-84
2023/05/22 03:45:37;;;;;;;;;;;15.40;99.90;;;;;;5074084;28;19971;-83
2023/05/22 03:48:05;;;;;;;;;;;;;;;;;;5072620;28;20594;-83
2023/05/22 03:50:32;;;;;;;;;;;;;;;;;;5075717;28;19931;-84
2023/05/22 03:52:59;;;;;;;;;;;15.20;99.90;;;;;;5093128;28;19943;-82
2023/05/22 03:55:29;;;;;;;;;;;;;;;;;;5099471;28;19932;-83
2023/05/22 03:57:57;;;;;;;;;;;;;;;;;;5088334;28;19958;-83
2023/05/22 04:00:24;;;;;;;;;;;;;;;;;;5085379;28;19924;-83
2023/05/22 04:02:53;;;;;;;;;;;15.30;99.90;;;;;;5098732;28;20813;-83
2023/05/22 04:05:20;;;;;;;;;;;;;;;;;;5090441;28;19928;-83
2023/05/22 04:07:48;;;;;;;;;;;;;;;;;;5084043;28;19924;-82
2023/05/22 04:10:15;;;;;;;;;;;;;;;;;;5085862;28;19936;-84
2023/05/22 04:12:42;;;;;;;;;;;;;;;;;;5085080;28;19928;-83
2023/05/22 04:15:09;;;;;;;;;;;;;;;;;;5083760;28;19912;-83
2023/05/22 04:17:37;;;;;;;;;;;;;;;;;;5096615;28;20167;-84
2023/05/22 04:20:07;;;;;;;;;;;15.30;99.90;;;;;;5087410;28;19924;-85
2023/05/22 04:22:34;;;;;;;;;;;;;;;;;;5079103;28;19928;-85
2023/05/22 04:25:03;;;;;;;;;;;;;;;;;;5083472;28;19983;-84
2023/05/22 04:27:32;;;;;;;;;;;;;;;;;;5083686;28;19928;-85
2023/05/22 04:29:59;;;;;;;;;;;;;;;;;;5085936;28;19956;-85
2023/05/22 04:32:26;;;;;;;;;;;;;;;;;;5078451;28;19928;-84
2023/05/22 04:34:57;;;;;;;;;;;;;;;;;;5081745;28;19932;-84
2023/05/22 04:37:25;;;;;;;;;;;;;;;;;;5077494;28;19984;-86
2023/05/22 04:39:57;;;;;;;;;;;;;;;;;;5083243;28;20021;-84
2023/05/22 04:42:27;;;;;;;;;;;;;;;;;;5081125;28;19928;-81
2023/05/22 04:44:56;;;;;;;;;;;16.00;99.90;;;;;;5092601;28;20515;-82
2023/05/22 04:47:24;;;;;;;;;;;;;;;;;;5098458;28;20437;-81
2023/05/22 04:49:51;;;;;;;;;;;16.10;99.90;;;;;;5118078;28;20351;-82
2023/05/22 04:52:18;;;;;;;;;;;16.20;99.90;;;;;;5089436;28;19950;-82
2023/05/22 04:54:45;;;;;;;;;;;16.30;99.90;;;;;;5080362;28;19923;-82
2023/05/22 04:57:12;;;;;;;;;;;;;;;;;;5100014;28;19939;-81
2023/05/22 04:59:40;;;;;;;;;;;16.40;99.90;;;;;;5080106;28;19985;-80
2023/05/22 05:02:07;;;;;;;;;;;;;;;;;;5079116;28;19928;-81
2023/05/22 05:04:37;;;;;;;;;;;16.50;99.90;;;;;;5079434;28;19932;-80
2023/05/22 05:07:05;;;;;;;;;;;16.60;99.90;;;;;;5084123;28;19935;-80
2023/05/22 05:09:33;;;;;;;;;;;16.70;99.90;;;;;;5098773;28;19924;-81
2023/05/22 05:12:01;;;;;;;;;;;;;;;;;;5082631;28;19920;-81
2023/05/22 05:14:29;;;;;;;;;;;;;;;;;;5083200;28;19974;-81
2023/05/22 05:16:57;;;;;;;;;;;16.80;99.90;;;;;;5089715;28;19924;-82
2023/05/22 05:19:24;;;;;;;;;;;;;;;;;;5087899;28;20018;-82
2023/05/22 05:21:56;;;;;;;;;;;;;;;;;;5084363;28;19932;-84
2023/05/22 05:24:27;;;;;;;;;;;;;;;;;;5093697;28;20299;-83
2023/05/22 05:26:58;;;;;;;;;;;17.20;99.90;;;;;;5085097;28;19931;-82
2023/05/22 05:29:25;;;;;;;;;;;17.30;99.90;;;;;;5084965;28;19924;-82
2023/05/22 05:32:04;;;;;;;;;;;;;;;;;;5087462;28;19967;-83
2023/05/22 05:34:51;;;;;;;;;;;;;;;;;;5102336;28;19928;-82
2023/05/22 05:37:47;;;;;;;;;;;17.70;99.90;;;;;;5077825;28;19924;-82
2023/05/22 05:40:15;;;;;;;;;;;17.90;99.90;;;;;;5082200;28;20002;-82
2023/05/22 05:42:51;;;;;;;;;;;18.10;99.90;;;;;;5083558;28;19951;-84
2023/05/22 05:45:26;;;;;;;;;;;;;;;;;;5085961;28;19924;-84
2023/05/22 05:47:53;;;;;;;;;;;18.60;99.90;;;;;;5089002;28;19924;-83
2023/05/22 05:50:20;;;;;;;;;;;;;;;;;;5082601;28;19928;-85
2023/05/22 05:52:50;;;;;;;;;;;19.20;99.90;;;;;;5086222;28;20056;-84
2023/05/22 05:55:19;;;;;;;;;;;20.10;99.90;;;;;;5085449;27;20355;-84
2023/05/22 05:57:48;;;;;;;;;;;20.70;99.90;;;;;;5088580;28;19928;-86
2023/05/22 06:00:26;;;;;;;;;;;21.10;99.90;;;;;;5087520;27;20018;-86
2023/05/22 06:03:05;;;;;;;;;;;22.40;99.90;;;;;;5078396;28;19932;-85
2023/05/22 06:05:49;;;;;;;;;;;22.70;99.90;;;;;;5064158;28;19954;-83
2023/05/22 06:08:27;;;;;;;;;;;22.70;99.90;;;;;;5088172;28;19951;-82
2023/05/22 06:10:57;;;;;;;;;;;22.60;99.90;;;;;;5086277;28;19999;-83
2023/05/22 06:13:38;;;;;;;;;;;22.70;99.90;;;;;;5074367;28;20077;-82
2023/05/22 06:16:06;;;;;;;;;;;23.30;99.90;;;;;;4900594;28;19924;-83
2023/05/22 06:18:36;;;;;;;;;;;24.20;99.90;;;;;;4929291;28;19924;-83
2023/05/22 06:21:03;;;;;;;;;;;25.40;99.90;;;;;;5081527;28;20004;-83
2023/05/22 06:23:31;;;;;;;;;;;26.20;99.90;;;;;;5082644;28;19950;-84
2023/05/22 06:25:59;;;;;;;;;;;27.50;99.90;;;;;;5076558;28;19924;-84
2023/05/22 06:28:27;;;;;;;;;;;28.60;99.90;;;;;;5083644;28;20276;-87
2023/05/22 06:30:55;;;;;;;;;;;29.60;99.90;;;;;;5086726;28;20011;-87
2023/05/22 06:33:23;;;;;;;;;;;30.30;99.90;;;;;;5095194;28;19981;-87
2023/05/22 06:35:55;;;;;;;;;;;31.00;99.90;;;;;;5104930;28;19984;-86
2023/05/22 06:38:22;;;;;;;;;;;31.20;99.90;;;;;;5080729;28;19978;-87
2023/05/22 06:40:50;;;;;;;;;;;31.10;99.90;;;;;;5091386;28;19928;-86
2023/05/22 06:43:20;;;;;;;;;;;30.80;99.90;;;;;;5092669;28;19932;-86
2023/05/22 06:45:55;;;;;;;;;;;30.30;99.90;;;;;;5076013;28;19924;-86
2023/05/22 06:48:40;;;;;;;;;;;30.30;99.90;;;;;;5121134;28;19939;-84
2023/05/22 06:51:17;;;;;;;;;;;30.30;99.90;;;;;;5105645;28;19991;-83
2023/05/22 06:53:50;;;;;;;;;;;30.60;99.90;;;;;;5104646;28;19916;-84
2023/05/22 06:56:21;;;;;;;;;;;30.90;99.90;;;;;;5106352;28;19939;-84
2023/05/22 06:58:58;;;;;;;;;;;31.70;99.90;;;;;;5124685;28;19949;-84
2023/05/22 07:01:41;;;;;;;;;;;32.00;99.90;;;;;;5104838;28;20023;-83
2023/05/22 07:04:14;;;;;;;;;;;32.00;99.90;;;;;;5103253;28;19924;-84
2023/05/22 07:06:56;;;;;;;;;;;32.20;99.90;;;;;;5105117;28;19960;-84
2023/05/22 07:09:24;;;;;;;;;;;32.60;99.90;;;;;;5106122;28;20327;-84
2023/05/22 07:11:51;;;;;;;;;;;32.80;99.90;;;;;;5106377;28;19985;-84
2023/05/22 07:14:19;;;;;;;;;;;33.30;99.90;;;;;;5105259;27;19982;-84
2023/05/22 07:16:46;;;;;;;;;;;33.30;99.90;;;;;;5093083;28;19946;-86
2023/05/22 07:19:18;;;;;;;;;;;33.40;99.90;;;;;;5085121;28;20373;-85
2023/05/22 07:21:46;;;;;;;;;;;33.20;99.90;;;;;;5092562;28;20398;-88
2023/05/22 07:24:18;;;;;;;;;;;32.20;99.90;;;;;;5086884;28;19935;-86
2023/05/22 07:26:45;;;;;;;;;;;32.10;99.90;;;;;;5083051;28;19928;-88
2023/05/22 07:29:13;;;;;;;;;;;31.00;99.90;;;;;;5082135;28;19935;-87
2023/05/22 07:31:41;;;;;;;;;;;29.90;99.90;;;;;;5096611;28;19929;-87
2023/05/22 07:34:08;;;;;;;;;;;29.00;99.90;;;;;;5075799;28;19989;-87
2023/05/22 07:36:35;;;;;;;;;;;27.50;99.90;;;;;;5077090;28;19928;-86
2023/05/22 07:39:04;;;;;;;;;;;27.30;99.90;;;;;;5095093;28;19935;-86
2023/05/22 07:41:35;;;;;;;;;;;25.70;99.90;;;;;;5075935;28;19966;-87
2023/05/22 07:44:02;;;;;;;;;;;25.00;99.90;;;;;;5079070;28;19939;-86
2023/05/22 07:46:36;;;;;;;;;;;;;;;;;;5082065;28;19912;-86
2023/05/22 07:49:11;;;;;;;;;;;;;;;;;;5084779;27;19932;-86
2023/05/22 07:51:41;;;;;;;;;;;23.50;99.90;;;;;;5077893;28;19943;-85
2023/05/22 07:54:09;;;;;;;;;;;23.20;99.90;;;;;;5079133;28;19928;-85
2023/05/22 07:56:42;;;;;;;;;;;23.10;99.90;;;;;;5081076;28;19928;-88
2023/05/22 07:59:10;;;;;;;;;;;23.50;99.90;;;;;;5087459;28;19959;-87
2023/05/22 08:01:37;;;;;;;;;;;24.50;99.90;;;;;;5093452;28;19962;-88
2023/05/22 08:04:05;;;;;;;;;;;24.60;99.90;;;;;;5090154;28;19951;-88
2023/05/22 08:06:34;;;;;;;;;;;25.00;99.90;;;;;;5082118;28;19930;-88
2023/05/22 08:09:03;;;;;;;;;;;25.10;99.90;;;;;;5081622;28;20055;-89
2023/05/22 08:11:34;;;;;;;;;;;25.10;99.90;;;;;;5099147;27;19939;-86
2023/05/22 08:14:03;;;;;;;;;;;24.90;99.90;;;;;;5082151;28;19928;-89
2023/05/22 08:16:30;;;;;;;;;;;24.40;99.90;;;;;;5087306;28;19949;-88
2023/05/22 08:18:57;;;;;;;;;;;24.40;99.90;;;;;;5105562;27;19928;-88
2023/05/22 08:21:31;;;;;;;;;;;24.10;99.90;;;;;;5087316;28;19992;-87
2023/05/22 08:23:59;;;;;;;;;;;23.80;99.90;;;;;;5078118;28;20446;-86
2023/05/22 08:26:28;;;;;;;;;;;23.60;99.90;;;;;;5086500;28;19973;-89
2023/05/22 08:28:55;;;;;;;;;;;23.70;99.90;;;;;;5091766;28;19935;-90
2023/05/22 08:31:24;;;;;;;;;;;23.70;99.90;;;;;;5085080;28;19970;-89
2023/05/22 08:33:51;;;;;;;;;;;23.50;99.90;;;;;;5091551;28;19924;-89
2023/05/22 08:36:18;;;;;;;;;;;23.50;99.90;;;;;;5076189;28;19947;-85
2023/05/22 08:38:45;;;;;;;;;;;23.60;99.90;;;;;;5094024;28;19924;-88
2023/05/22 08:41:13;;;;;;;;;;;23.60;99.90;;;;;;5091123;28;19951;-84
2023/05/22 08:43:43;;;;;;;;;;;23.60;99.90;;;;;;5074048;28;19978;-88
2023/05/22 08:46:10;;;;;;;;;;;23.50;99.90;;;;;;5088542;28;19943;-86
2023/05/22 08:48:40;;;;;;;;;;;23.40;99.90;;;;;;5086945;28;19954;-85
2023/05/22 08:51:08;;;;;;;;;;;23.20;99.90;;;;;;5092997;28;19946;-88
2023/05/22 08:53:35;;;;;;;;;;;23.00;99.90;;;;;;5092569;28;19924;-89
2023/05/22 08:56:03;;;;;;;;;;;23.00;99.90;;;;;;5083587;28;19928;-85
2023/05/22 08:58:34;;;;;;;;;;;22.70;99.90;;;;;;5085674;28;19950;-87
2023/05/22 09:01:01;;;;;;;;;;;22.60;99.90;;;;;;5103739;28;19928;-86
2023/05/22 09:03:31;;;;;;;;;;;22.50;99.90;;;;;;5087808;28;19928;-88
2023/05/22 09:06:00;;;;;;;;;;;22.50;99.90;;;;;;5083268;28;20192;-89
2023/05/22 09:08:27;;;;;;;;;;;22.60;99.90;;;;;;5084624;28;20013;-87
2023/05/22 09:11:00;;;;;;;;;;;22.60;99.90;;;;;;5087434;28;19936;-88
2023/05/22 09:13:31;;;;;;;;;;;22.60;99.90;;;;;;5084931;28;19931;-87
2023/05/22 09:16:00;;;;;;;;;;;22.60;99.90;;;;;;5102474;28;19928;-88
2023/05/22 09:18:28;;;;;;;;;;;22.40;99.90;;;;;;5086390;28;19924;-86
2023/05/22 09:20:57;;;;;;;;;;;22.40;99.90;;;;;;5102522;28;19965;-87
2023/05/22 09:23:27;;;;;;;;;;;22.30;99.90;;;;;;5083522;28;19920;-88
2023/05/22 09:25:54;;;;;;;;;;;22.40;99.90;;;;;;5094998;28;19913;-89
2023/05/22 09:28:21;;;;;;;;;;;22.50;99.90;;;;;;5101104;28;19935;-85
2023/05/22 09:30:49;;;;;;;;;;;22.50;99.90;;;;;;5084514;28;19928;-85
2023/05/22 09:33:16;;;;;;;;;;;22.70;99.90;;;;;;5094326;28;19933;-84
2023/05/22 09:35:44;;;;;;;;;;;22.70;99.90;;;;;;5099462;28;19928;-87
2023/05/22 09:38:11;;;;;;;;;;;23.10;99.90;;;;;;5073752;28;19924;-86
2023/05/22 09:40:41;;;;;;;;;;;23.10;99.90;;;;;;5065577;28;19946;-87
2023/05/22 09:43:10;;;;;;;;;;;23.50;99.90;;;;;;5068595;28;19970;-82
2023/05/22 09:45:40;;;;;;;;;;;23.70;99.90;;;;;;5079679;28;20384;-85
2023/05/22 09:48:09;;;;;;;;;;;24.30;99.90;;;;;;5083990;28;19928;-85
2023/05/22 09:50:36;;;;;;;;;;;24.50;99.90;;;;;;5102354;28;19935;-85
2023/05/22 09:53:04;;;;;;;;;;;24.80;99.90;;;;;;5065940;28;19928;-86
2023/05/22 09:55:33;;;;;;;;;;;;;;;;;;5082818;28;19967;-85
2023/05/22 09:58:03;;;;;;;;;;;25.20;99.90;;;;;;5083462;28;19924;-84
2023/05/22 10:00:32;;;;;;;;;;;25.30;99.90;;;;;;5073504;28;19931;-86
2023/05/22 10:03:03;;;;;;;;;;;25.30;99.90;;;;;;5089760;28;19947;-85
2023/05/22 10:05:32;;;;;;;;;;;25.70;99.90;;;;;;5082674;28;20940;-87
2023/05/22 10:08:04;;;;;;;;;;;25.90;99.90;;;;;;5100651;28;19928;-87
2023/05/22 10:10:36;;;;;;;;;;;25.80;99.90;;;;;;5084455;28;19938;-87
2023/05/22 10:13:05;;;;;;;;;;;25.40;99.90;;;;;;5080320;28;19939;-86
2023/05/22 10:15:32;;;;;;;;;;;25.40;99.90;;;;;;5095958;28;19924;-86
2023/05/22 10:17:59;;;;;;;;;;;25.50;99.90;;;;;;5075537;28;20112;-86
2023/05/22 10:20:26;;;;;;;;;;;25.60;99.90;;;;;;5078091;28;19932;-84
2023/05/22 10:22:54;;;;;;;;;;;25.70;99.90;;;;;;5071102;28;19943;-85
2023/05/22 10:25:24;;;;;;;;;;;25.80;99.90;;;;;;5087792;28;20086;-85
2023/05/22 10:27:52;;;;;;;;;;;25.60;99.90;;;;;;5098065;27;19991;-86
2023/05/22 10:30:24;;;;;;;;;;;25.10;99.90;;;;;;5076845;28;20373;-86
2023/05/22 10:33:23;;;;;;;;;;;25.20;99.90;;;;;;5025341;28;20055;-84
2023/05/22 10:35:52;;;;;;;;;;;25.20;99.90;;;;;;5087091;28;19924;-87
2023/05/22 10:38:32;;;;;;;;;;;25.70;99.90;;;;;;5099326;28;19928;-86
2023/05/22 10:40:59;;;;;;;;;;;25.20;99.90;;;;;;5066980;28;19912;-85
2023/05/22 10:43:29;;;;;;;;;;;25.20;99.90;;;;;;5094860;28;20426;-87
2023/05/22 10:46:03;;;;;;;;;;;25.10;99.90;;;;;;5082507;28;19928;-87
2023/05/22 10:48:36;;;;;;;;;;;25.00;99.90;;;;;;5069146;28;19985;-86
2023/05/22 10:51:04;;;;;;;;;;;25.00;99.90;;;;;;5078245;28;19924;-87
2023/05/22 10:53:39;;;;;;;;;;;25.00;99.90;;;;;;5072754;28;19928;-85
2023/05/22 10:56:10;;;;;;;;;;;25.10;99.90;;;;;;5064995;28;19978;-85
2023/05/22 10:58:37;;;;;;;;;;;25.10;99.90;;;;;;5062890;28;19932;-85
2023/05/22 11:01:13;;;;;;;;;;;25.00;99.90;;;;;;5064752;28;19951;-85
2023/05/22 11:03:56;;;;;;;;;;;24.90;99.90;;;;;;5091408;28;19928;-86
2023/05/22 11:06:31;;;;;;;;;;;24.90;99.90;;;;;;5081633;28;19924;-86
2023/05/22 11:11:43;;;;;;;;;;;24.60;99.90;;;;;;5079176;28;19949;-87
2023/05/22 11:14:11;;;;;;;;;;;24.50;99.90;;;;;;5077995;28;19998;-87
2023/05/22 11:16:39;;;;;;;;;;;24.50;99.90;;;;;;5082904;28;20026;-88
2023/05/22 11:19:07;;;;;;;;;;;24.70;99.90;;;;;;5104157;27;19928;-87
2023/05/22 11:21:35;;;;;;;;;;;24.80;99.90;;;;;;5079239;28;19928;-88
2023/05/22 11:24:02;;;;;;;;;;;25.10;99.90;;;;;;5102663;28;19935;-88
2023/05/22 11:26:29;;;;;;;;;;;25.80;99.90;;;;;;5081301;28;19931;-89
2023/05/22 11:28:58;;;;;;;;;;;26.00;99.90;;;;;;5104119;27;19931;-88
2023/05/22 11:31:27;;;;;;;;;;;26.20;99.90;;;;;;5079179;28;19925;-89
2023/05/22 11:33:55;;;;;;;;;;;26.20;99.90;;;;;;5083562;28;19924;-88
2023/05/22 11:36:48;;;;;;;;;;;27.30;99.90;;;;;;5089479;28;19924;-86
2023/05/22 11:39:15;;;;;;;;;;;26.10;99.90;;;;;;5085145;28;19935;-88
2023/05/22 11:41:42;;;;;;;;;;;26.20;99.90;;;;;;5077659;28;19920;-84
2023/05/22 11:44:09;;;;;;;;;;;26.30;99.90;;;;;;5071112;28;19992;-88
2023/05/22 11:46:38;;;;;;;;;;;26.40;99.90;;;;;;5082217;28;19932;-84
2023/05/22 11:49:09;;;;;;;;;;;26.50;99.90;;;;;;5082172;28;19979;-86
2023/05/22 11:51:38;;;;;;;;;;;26.40;99.90;;;;;;5085630;28;19934;-88
2023/05/22 11:54:05;;;;;;;;;;;26.40;99.90;;;;;;5086673;28;19928;-84
2023/05/22 11:56:32;;;;;;;;;;;26.60;99.90;;;;;;5085310;28;19924;-84
2023/05/22 11:58:59;;;;;;;;;;;26.90;99.90;;;;;;5099987;28;19950;-83
2023/05/22 12:01:27;;;;;;;;;;;26.90;99.90;;;;;;5085304;28;19983;-82
2023/05/22 12:03:54;;;;;;;;;;;27.10;99.90;;;;;;5085827;28;19924;-87
2023/05/22 12:06:22;;;;;;;;;;;27.20;99.90;;;;;;5087626;28;19935;-84
2023/05/22 12:08:49;;;;;;;;;;;27.20;99.90;;;;;;5080248;28;19935;-86
2023/05/22 12:11:16;;;;;;;;;;;27.10;99.90;;;;;;5100457;28;20019;-86
2023/05/22 12:13:52;;;;;;;;;;;27.90;99.90;;;;;;5086255;28;19953;-86
2023/05/22 12:16:21;;;;;;;;;;;27.40;99.90;;;;;;5088505;28;20303;-87
2023/05/22 12:18:52;;;;;;;;;;;27.50;99.90;;;;;;5082693;28;19924;-86
2023/05/22 12:21:26;;;;;;;;;;;27.60;99.90;;;;;;5095489;28;19996;-86
2023/05/22 12:23:55;;;;;;;;;;;27.70;99.90;;;;;;5096990;28;19912;-87
2023/05/22 12:26:22;;;;;;;;;;;27.70;99.90;;;;;;5083658;28;19932;-86
2023/05/22 12:28:52;;;;;;;;;;;27.70;99.90;;;;;;5080610;28;19966;-84
2023/05/22 12:31:22;;;;;;;;;;;27.70;99.90;;;;;;5077155;28;19990;-86
2023/05/22 12:33:49;;;;;;;;;;;27.60;99.90;;;;;;5093960;28;19935;-85
2023/05/22 12:36:16;;;;;;;;;;;27.80;99.90;;;;;;5082859;28;19924;-87
2023/05/22 12:38:59;;;;;;;;;;;27.80;99.90;;;;;;5101250;28;19989;-86
2023/05/22 12:41:26;;;;;;;;;;;28.10;99.90;;;;;;5087209;28;19947;-85
2023/05/22 12:43:53;;;;;;;;;;;28.10;99.90;;;;;;5102382;28;20003;-86
2023/05/22 12:46:20;;;;;;;;;;;28.60;99.90;;;;;;5075495;28;19924;-86
2023/05/22 12:48:47;;;;;;;;;;;28.70;99.90;;;;;;5090000;28;19936;-87
2023/05/22 12:51:14;;;;;;;;;;;28.60;99.90;;;;;;5100112;28;19989;-87
2023/05/22 12:53:41;;;;;;;;;;;28.60;99.90;;;;;;5085465;28;19931;-85
2023/05/22 12:56:09;;;;;;;;;;;28.70;99.90;;;;;;5083228;28;19928;-84
2023/05/22 12:58:38;;;;;;;;;;;28.70;99.90;;;;;;5083740;28;20494;-87
2023/05/22 13:01:05;;;;;;;;;;;28.60;99.90;;;;;;5082805;28;19953;-85
2023/05/22 13:03:32;;;;;;;;;;;28.60;99.90;;;;;;5078817;28;19928;-86
2023/05/22 13:05:59;;;;;;;;;;;28.20;99.90;;;;;;5070227;28;19924;-87
2023/05/22 13:08:26;;;;;;;;;;;28.30;99.90;;;;;;5096111;28;19946;-86
2023/05/22 13:10:53;;;;;;;;;;;28.40;99.90;;;;;;5079432;28;19938;-84
2023/05/22 13:13:22;;;;;;;;;;;28.50;99.90;;;;;;5080545;28;19928;-87
2023/05/22 13:15:49;;;;;;;;;;;28.40;99.90;;;;;;5081434;28;19924;-88
2023/05/22 13:18:17;;;;;;;;;;;28.40;99.90;;;;;;5079216;28;19934;-88
2023/05/22 13:20:44;;;;;;;;;;;28.50;99.90;;;;;;5077096;28;19924;-87
2023/05/22 13:23:11;;;;;;;;;;;28.40;99.90;;;;;;5074487;28;19928;-88
2023/05/22 13:25:38;;;;;;;;;;;28.40;99.90;;;;;;5093699;28;19928;-88
2023/05/22 13:28:05;;;;;;;;;;;28.40;99.90;;;;;;5061352;28;19961;-88
2023/05/22 13:30:33;;;;;;;;;;;28.40;99.90;;;;;;5063950;28;20140;-88
2023/05/22 13:33:01;;;;;;;;;;;28.30;99.90;;;;;;5074192;28;19932;-86
2023/05/22 13:35:28;;;;;;;;;;;28.70;99.90;;;;;;5090792;28;19966;-87
2023/05/22 13:37:55;;;;;;;;;;;27.20;99.90;;;;;;5093604;28;19932;-87
2023/05/22 13:40:22;;;;;;;;;;;28.00;99.90;;;;;;5082020;28;21438;-87
2023/05/22 13:42:51;;;;;;;;;;;28.30;99.90;;;;;;5073468;28;19935;-85
2023/05/22 13:45:19;;;;;;;;;;;28.50;99.90;;;;;;5080317;28;19924;-87
2023/05/22 13:47:48;;;;;;;;;;;28.70;99.90;;;;;;5093601;22;19989;-77
2023/05/22 13:50:15;;;;;;;;;;;28.80;99.90;;;;;;5058325;28;20071;-77
2023/05/22 13:52:41;;;;;;;;;;;28.80;99.90;;;;;;5068655;28;19928;-77
2023/05/22 13:55:08;;;;;;;;;;;28.80;99.90;;;;;;5066006;28;20349;-77
2023/05/22 13:57:39;;;;;;;;;;;28.80;99.90;;;;;;5067744;28;19935;-79
2023/05/22 14:00:08;;;;;;;;;;;28.70;99.90;;;;;;5058961;28;19931;-77
2023/05/22 14:02:34;;;;;;;;;;;28.60;99.90;;;;;;5062521;28;19956;-78
2023/05/22 14:05:03;;;;;;;;;;;29.30;99.90;;;;;;5059102;28;19928;-78
2023/05/22 14:07:29;;;;;;;;;;;28.60;99.90;;;;;;5064082;28;19933;-77
2023/05/22 14:09:56;;;;;;;;;;;28.60;99.90;;;;;;5075350;28;19968;-76
2023/05/22 14:12:23;;;;;;;;;;;28.60;99.90;;;;;;5078520;28;19920;-76
2023/05/22 14:14:49;;;;;;;;;;;28.80;99.90;;;;;;5061532;28;19928;-77
2023/05/22 14:17:16;;;;;;;;;;;28.90;99.90;;;;;;5076402;28;19986;-78
2023/05/22 14:19:43;;;;;;;;;;;28.80;99.90;;;;;;5053479;28;19932;-79
2023/05/22 14:22:11;;;;;;;;;;;28.80;99.90;;;;;;5071851;28;19935;-78
2023/05/22 14:24:38;;;;;;;;;;;28.80;99.90;;;;;;5071849;28;19932;-77
2023/05/22 14:27:05;;;;;;;;;;;28.90;99.90;;;;;;5070642;28;19935;-79
2023/05/22 14:29:31;;;;;;;;;;;28.90;99.90;;;;;;5071271;28;20575;-78
2023/05/22 14:32:01;;;;;;;;;;;28.60;99.90;;;;;;5071323;28;19932;-78
2023/05/22 14:34:28;;;;;;;;;;;28.20;99.90;;;;;;5071497;28;20399;-77
2023/05/22 14:36:55;;;;;;;;;;;28.00;99.90;;;;;;5070720;28;20285;-78
2023/05/22 14:39:23;;;;;;;;;;;28.00;99.90;;;;;;5070947;28;19954;-78
2023/05/22 14:41:50;;;;;;;;;;;27.10;99.90;;;;;;5071402;28;19934;-78
2023/05/22 14:44:18;;;;;;;;;;;28.20;99.90;;;;;;5070303;28;19928;-77
2023/05/22 14:46:45;;;;;;;;;;;28.30;99.90;;;;;;5060192;28;19972;-78
2023/05/22 14:49:12;;;;;;;;;;;28.30;99.90;;;;;;5035225;28;20430;-78
2023/05/22 14:51:39;;;;;;;;;;;28.30;99.90;;;;;;5067877;28;19924;-78
2023/05/22 14:54:06;;;;;;;;;;;28.30;99.90;;;;;;5070707;28;19932;-78
2023/05/22 14:56:35;;;;;;;;;;;28.40;99.90;;;;;;5059435;28;19996;-79
2023/05/22 14:59:01;;;;;;;;;;;28.50;99.90;;;;;;5059601;28;19939;-78
2023/05/22 15:01:30;;;;;;;;;;;28.50;99.90;;;;;;5059942;28;20335;-79